createdAt,value
2018-02-21T00:00:06.393Z,93.20
2018-02-21T00:01:06.357Z,93.79
2018-02-21T00:02:06.336Z,93.88
2018-02-21T00:03:06.327Z,94.07
2018-02-21T00:04:06.476Z,93.88
2018-02-21T00:05:06.349Z,94.07
2018-02-21T00:06:06.244Z,93.69
2018-02-21T00:07:06.220Z,94.56
2018-02-21T00:08:06.187Z,93.49
2018-02-21T00:09:06.171Z,94.17
2018-02-21T00:12:06.250Z,93.64
2018-02-21T00:13:06.067Z,94.51
2018-02-21T00:14:06.042Z,95.10
2018-02-21T00:15:06.035Z,95.39
2018-02-21T00:16:05.994Z,95.10
2018-02-21T00:17:06.025Z,95.39
2018-02-21T00:18:06.159Z,95.05
2018-02-21T00:19:05.923Z,95.97
2018-02-21T00:20:06.456Z,96.84
2018-02-21T00:21:05.962Z,97.33
2018-02-21T00:22:05.868Z,97.08
2018-02-21T00:23:06.050Z,96.60
2018-02-21T00:24:05.829Z,97.18
2018-02-21T00:25:05.794Z,96.70
2018-02-21T00:26:05.777Z,97.67
2018-02-21T00:27:05.750Z,97.38
2018-02-21T00:28:05.871Z,97.57
2018-02-21T00:29:05.692Z,97.47
2018-02-21T00:30:05.672Z,97.38
2018-02-21T00:31:05.662Z,96.98
2018-02-21T00:32:05.640Z,97.18
2018-02-21T00:33:05.757Z,98.05
2018-02-21T00:34:05.615Z,98.39
2018-02-21T00:35:05.552Z,97.86
2018-02-21T00:36:05.526Z,98.73
2018-02-21T00:37:05.530Z,98.63
2018-02-21T00:38:05.695Z,97.67
2018-02-21T00:39:05.505Z,99.22
2018-02-21T00:40:05.436Z,97.76
2018-02-21T00:41:05.423Z,97.76
2018-02-21T00:42:05.399Z,98.63
2018-02-21T00:43:05.907Z,99.41
2018-02-21T00:44:05.537Z,99.22
2018-02-21T00:45:05.319Z,98.83
2018-02-21T00:46:05.504Z,98.93
2018-02-21T00:47:05.283Z,99.12
2018-02-21T00:48:05.236Z,98.63
2018-02-21T00:49:05.757Z,98.15
2018-02-21T00:50:05.922Z,98.73
2018-02-21T00:51:05.704Z,98.54
2018-02-21T00:52:05.147Z,98.73
2018-02-21T00:53:05.656Z,98.83
2018-02-21T00:54:05.101Z,99.80
2018-02-21T00:55:05.133Z,99.99
2018-02-21T00:56:05.785Z,99.75
2018-02-21T00:57:05.021Z,99.55
2018-02-21T00:58:05.025Z,99.55
2018-02-21T00:59:04.994Z,99.99
2018-02-21T01:00:04.966Z,99.75
2018-02-21T01:01:05.078Z,99.55
2018-02-21T01:02:05.450Z,99.99
2018-02-21T01:03:05.426Z,99.36
2018-02-21T01:04:04.858Z,99.99
2018-02-21T01:05:04.830Z,99.65
2018-02-21T01:06:05.023Z,99.55
2018-02-21T01:07:04.800Z,99.65
2018-02-21T01:08:04.779Z,99.99
2018-02-21T01:09:04.753Z,99.99
2018-02-21T01:10:04.803Z,99.99
2018-02-21T01:11:04.906Z,99.99
2018-02-21T01:12:04.686Z,99.99
2018-02-21T01:13:04.634Z,99.99
2018-02-21T01:14:05.185Z,99.99
2018-02-21T01:15:04.620Z,99.99
2018-02-21T01:16:05.309Z,99.99
2018-02-21T01:17:04.546Z,99.99
2018-02-21T01:18:05.070Z,99.99
2018-02-21T01:19:04.500Z,99.99
2018-02-21T01:20:04.900Z,99.99
2018-02-21T01:21:04.445Z,99.99
2018-02-21T01:22:04.636Z,99.99
2018-02-21T01:23:04.943Z,99.99
2018-02-21T01:24:04.426Z,99.99
2018-02-21T01:25:04.405Z,99.99
2018-02-21T01:26:04.541Z,99.99
2018-02-21T01:27:04.384Z,99.99
2018-02-21T01:28:04.569Z,99.99
2018-02-21T01:29:04.376Z,99.99
2018-02-21T01:30:04.262Z,99.99
2018-02-21T01:31:04.220Z,99.99
2018-02-21T01:32:04.726Z,99.99
2018-02-21T01:33:04.226Z,99.99
2018-02-21T01:34:04.328Z,99.99
2018-02-21T01:35:04.127Z,99.99
2018-02-21T01:36:04.125Z,99.99
2018-02-21T01:37:04.068Z,99.99
2018-02-21T01:38:04.039Z,99.99
2018-02-21T01:39:04.230Z,99.99
2018-02-21T01:40:04.325Z,99.99
2018-02-21T01:41:04.029Z,99.99
2018-02-21T01:42:04.487Z,99.99
2018-02-21T01:43:03.942Z,99.99
2018-02-21T01:44:04.196Z,99.99
2018-02-21T01:45:03.907Z,99.99
2018-02-21T01:46:04.477Z,99.99
2018-02-21T01:47:03.869Z,99.99
2018-02-21T01:48:04.384Z,99.99
2018-02-21T01:49:04.593Z,99.99
2018-02-21T01:50:03.811Z,99.99
2018-02-21T01:51:03.790Z,99.99
2018-02-21T01:52:04.323Z,99.99
2018-02-21T01:53:03.773Z,99.99
2018-02-21T01:54:04.433Z,99.99
2018-02-21T01:55:03.614Z,99.99
2018-02-21T01:56:04.321Z,99.99
2018-02-21T01:57:04.170Z,99.99
2018-02-21T01:58:03.914Z,99.99
2018-02-21T01:59:03.948Z,99.99
2018-02-21T02:00:04.410Z,99.99
2018-02-21T02:01:04.401Z,99.99
2018-02-21T02:02:03.415Z,99.99
2018-02-21T02:03:03.930Z,99.99
2018-02-21T02:04:05.101Z,99.99
2018-02-21T02:05:03.584Z,99.99
2018-02-21T02:06:04.064Z,99.99
2018-02-21T02:07:03.296Z,99.99
2018-02-21T02:08:03.316Z,99.99
2018-02-21T02:09:03.244Z,99.99
2018-02-21T02:10:03.763Z,99.99
2018-02-21T02:11:03.876Z,99.99
2018-02-21T02:12:03.801Z,99.99
2018-02-21T02:13:03.604Z,99.99
2018-02-21T02:14:03.126Z,99.99
2018-02-21T02:15:03.706Z,99.99
2018-02-21T02:16:03.059Z,99.99
2018-02-21T02:17:03.795Z,99.99
2018-02-21T02:18:03.614Z,99.99
2018-02-21T02:19:03.055Z,99.99
2018-02-21T02:20:03.062Z,99.99
2018-02-21T02:21:03.550Z,99.99
2018-02-21T02:22:03.161Z,99.99
2018-02-21T02:23:02.943Z,99.99
2018-02-21T02:24:03.498Z,99.99
2018-02-21T02:25:02.907Z,99.99
2018-02-21T02:26:02.876Z,99.99
2018-02-21T02:27:03.064Z,99.99
2018-02-21T02:28:02.836Z,99.99
2018-02-21T02:29:02.968Z,99.99
2018-02-21T02:30:02.792Z,99.99
2018-02-21T02:31:03.158Z,99.99
2018-02-21T02:32:03.519Z,99.99
2018-02-21T02:33:02.649Z,99.99
2018-02-21T02:34:02.618Z,99.99
2018-02-21T02:35:02.857Z,99.99
2018-02-21T02:36:03.064Z,99.99
2018-02-21T02:37:02.584Z,99.99
2018-02-21T02:38:03.237Z,99.99
2018-02-21T02:39:02.492Z,99.99
2018-02-21T02:40:02.461Z,99.99
2018-02-21T02:41:02.441Z,99.99
2018-02-21T02:42:02.949Z,99.99
2018-02-21T02:43:02.815Z,99.99
2018-02-21T02:44:02.556Z,99.99
2018-02-21T02:45:02.795Z,99.99
2018-02-21T02:46:02.314Z,99.99
2018-02-21T02:47:02.277Z,99.99
2018-02-21T02:48:02.787Z,99.99
2018-02-21T02:49:02.810Z,99.99
2018-02-21T02:50:02.438Z,99.99
2018-02-21T02:51:02.171Z,99.99
2018-02-21T02:52:02.584Z,99.99
2018-02-21T02:53:02.129Z,99.99
2018-02-21T02:54:02.100Z,99.99
2018-02-21T02:55:02.810Z,99.99
2018-02-21T02:56:02.045Z,99.99
2018-02-21T02:57:02.027Z,99.99
2018-02-21T02:58:01.988Z,99.99
2018-02-21T02:59:01.975Z,99.99
2018-02-21T03:00:02.222Z,99.99
2018-02-21T03:01:02.455Z,99.99
2018-02-21T03:02:02.464Z,99.99
2018-02-21T03:03:01.873Z,99.99
2018-02-21T03:04:01.837Z,99.99
2018-02-21T03:05:02.025Z,99.99
2018-02-21T03:06:01.799Z,99.99
2018-02-21T03:07:01.771Z,99.99
2018-02-21T03:08:01.748Z,99.99
2018-02-21T03:09:01.711Z,99.99
2018-02-21T03:10:01.880Z,99.99
2018-02-21T03:11:01.721Z,99.99
2018-02-21T03:12:01.633Z,99.99
2018-02-21T03:13:01.619Z,99.99
2018-02-21T03:14:01.583Z,99.99
2018-02-21T03:15:01.630Z,99.99
2018-02-21T03:16:01.792Z,99.99
2018-02-21T03:17:01.623Z,99.99
2018-02-21T03:18:01.492Z,99.99
2018-02-21T03:19:01.441Z,99.99
2018-02-21T03:20:01.429Z,99.99
2018-02-21T03:21:01.408Z,99.99
2018-02-21T03:22:01.575Z,99.99
2018-02-21T03:23:01.375Z,99.99
2018-02-21T03:24:01.330Z,99.99
2018-02-21T03:25:01.841Z,99.99
2018-02-21T03:26:01.283Z,99.99
2018-02-21T03:27:01.310Z,99.99
2018-02-21T03:28:01.414Z,99.99
2018-02-21T03:29:01.201Z,99.99
2018-02-21T03:30:01.175Z,99.99
2018-02-21T03:31:01.155Z,99.99
2018-02-21T03:32:01.158Z,99.99
2018-02-21T03:33:01.306Z,99.99
2018-02-21T03:34:01.073Z,99.99
2018-02-21T03:35:01.034Z,99.99
2018-02-21T03:36:01.015Z,99.99
2018-02-21T03:37:01.003Z,99.99
2018-02-21T03:38:01.172Z,99.99
2018-02-21T03:39:00.954Z,99.99
2018-02-21T03:40:00.919Z,99.99
2018-02-21T03:41:00.896Z,99.99
2018-02-21T03:42:00.857Z,99.99
2018-02-21T03:43:01.091Z,99.99
2018-02-21T03:44:00.813Z,99.99
2018-02-21T03:45:00.819Z,99.99
2018-02-21T03:46:00.757Z,99.99
2018-02-21T03:47:00.720Z,99.99
2018-02-21T03:48:00.889Z,99.99
2018-02-21T03:49:00.692Z,99.99
2018-02-21T03:50:00.640Z,99.99
2018-02-21T03:51:00.621Z,99.99
2018-02-21T03:52:00.607Z,99.99
2018-02-21T03:53:00.575Z,99.99
2018-02-21T03:54:00.739Z,99.99
2018-02-21T03:55:00.520Z,99.99
2018-02-21T03:56:00.506Z,99.99
2018-02-21T03:57:00.463Z,99.99
2018-02-21T03:58:00.451Z,99.99
2018-02-21T03:59:00.396Z,99.99
2018-02-21T04:00:00.643Z,99.99
2018-02-21T04:01:00.361Z,99.99
2018-02-21T04:02:00.413Z,99.99
2018-02-21T04:03:00.302Z,99.99
2018-02-21T04:04:00.290Z,99.99
2018-02-21T04:05:00.253Z,99.99
2018-02-21T04:06:00.422Z,99.99
2018-02-21T04:07:00.219Z,99.99
2018-02-21T04:08:00.175Z,99.99
2018-02-21T04:09:00.144Z,99.99
2018-02-21T04:10:00.108Z,99.99
2018-02-21T04:11:00.300Z,99.99
2018-02-21T04:12:00.082Z,99.99
2018-02-21T04:13:00.061Z,99.99
2018-02-21T04:14:00.032Z,99.99
2018-02-21T04:15:00.064Z,99.99
2018-02-21T04:16:00.176Z,99.99
2018-02-21T04:16:59.986Z,99.99
2018-02-21T04:17:59.921Z,99.99
2018-02-21T04:18:59.932Z,99.99
2018-02-21T04:19:59.854Z,99.99
2018-02-21T04:21:00.053Z,99.99
2018-02-21T04:21:59.809Z,99.99
2018-02-21T04:22:59.798Z,99.99
2018-02-21T04:23:59.768Z,99.99
2018-02-21T04:24:59.731Z,99.99
2018-02-21T04:25:59.713Z,99.99
2018-02-21T04:26:59.883Z,99.99
2018-02-21T04:27:59.639Z,99.84
2018-02-21T04:28:59.634Z,99.99
2018-02-21T04:29:59.599Z,99.46
2018-02-21T04:30:59.576Z,97.23
2018-02-21T04:31:59.556Z,97.81
2018-02-21T04:32:59.798Z,99.16
2018-02-21T04:33:59.494Z,97.72
2018-02-21T04:34:59.486Z,96.46
2018-02-21T04:35:59.445Z,97.91
2018-02-21T04:36:59.407Z,97.81
2018-02-21T04:37:59.397Z,96.94
2018-02-21T04:38:59.566Z,95.93
2018-02-21T04:39:59.400Z,96.22
2018-02-21T04:40:59.313Z,94.96
2018-02-21T04:41:59.265Z,96.31
2018-02-21T04:42:59.248Z,95.25
2018-02-21T04:43:59.222Z,95.25
2018-02-21T04:44:59.399Z,94.09
2018-02-21T04:45:59.206Z,95.45
2018-02-21T04:46:59.136Z,93.99
2018-02-21T04:47:59.130Z,95.35
2018-02-21T04:48:59.092Z,94.38
2018-02-21T04:49:59.257Z,94.09
2018-02-21T04:50:59.035Z,94.29
2018-02-21T04:51:59.015Z,96.41
2018-02-21T04:52:59.120Z,95.35
2018-02-21T04:53:58.972Z,93.90
2018-02-21T04:54:59.133Z,95.15
2018-02-21T04:55:58.922Z,93.51
2018-02-21T04:56:58.899Z,93.61
2018-02-21T04:57:58.873Z,94.48
2018-02-21T04:58:58.844Z,93.61
2018-02-21T04:59:58.810Z,95.25
2018-02-21T05:00:58.980Z,94.96
2018-02-21T05:01:58.762Z,93.99
2018-02-21T05:02:58.718Z,93.51
2018-02-21T05:03:58.697Z,93.03
2018-02-21T05:04:58.665Z,93.32
2018-02-21T05:05:58.652Z,91.77
2018-02-21T05:06:58.825Z,92.65
2018-02-21T05:07:58.664Z,92.55
2018-02-21T05:08:58.573Z,92.55
2018-02-21T05:09:58.543Z,94.29
2018-02-21T05:10:58.508Z,94.19
2018-02-21T05:11:58.704Z,92.83
2018-02-21T05:12:58.474Z,94.77
2018-02-21T05:13:58.468Z,96.31
2018-02-21T05:14:58.415Z,95.01
2018-02-21T05:15:58.399Z,94.34
2018-02-21T05:16:58.367Z,94.09
2018-02-21T05:17:58.543Z,95.20
2018-02-21T05:18:58.317Z,95.98
2018-02-21T05:19:58.290Z,95.20
2018-02-21T05:20:58.252Z,95.68
2018-02-21T05:21:58.236Z,96.56
2018-02-21T05:22:58.200Z,94.92
2018-02-21T05:23:58.371Z,95.68
2018-02-21T05:24:58.136Z,95.40
2018-02-21T05:25:58.121Z,95.20
2018-02-21T05:26:58.085Z,95.40
2018-02-21T05:27:58.062Z,92.65
2018-02-21T05:28:58.248Z,92.55
2018-02-21T05:29:58.010Z,93.03
2018-02-21T05:30:57.980Z,92.16
2018-02-21T05:31:57.959Z,92.25
2018-02-21T05:32:57.932Z,92.93
2018-02-21T05:33:57.969Z,92.45
2018-02-21T05:34:58.090Z,94.67
2018-02-21T05:35:57.855Z,94.29
2018-02-21T05:36:57.829Z,93.03
2018-02-21T05:37:57.811Z,92.07
2018-02-21T05:38:57.847Z,92.02
2018-02-21T05:39:57.776Z,93.13
2018-02-21T05:40:57.863Z,92.98
2018-02-21T05:41:57.686Z,91.87
2018-02-21T05:42:57.667Z,90.13
2018-02-21T05:43:57.645Z,90.42
2018-02-21T05:44:57.620Z,89.50
2018-02-21T05:45:57.829Z,89.45
2018-02-21T05:46:57.568Z,89.55
2018-02-21T05:47:57.527Z,89.50
2018-02-21T05:48:57.516Z,90.85
2018-02-21T05:49:57.477Z,91.58
2018-02-21T05:50:57.456Z,90.52
2018-02-21T05:51:57.620Z,90.81
2018-02-21T05:52:57.436Z,90.42
2018-02-21T05:53:57.368Z,91.39
2018-02-21T05:54:57.348Z,88.97
2018-02-21T05:55:57.335Z,89.94
2018-02-21T05:56:57.315Z,89.01
2018-02-21T05:57:57.472Z,88.73
2018-02-21T05:58:57.244Z,88.92
2018-02-21T05:59:57.208Z,88.82
2018-02-21T06:00:57.200Z,88.82
2018-02-21T06:01:57.176Z,88.24
2018-02-21T06:02:57.136Z,87.85
2018-02-21T06:03:57.313Z,88.39
2018-02-21T06:04:57.079Z,88.34
2018-02-21T06:05:57.069Z,87.66
2018-02-21T06:06:57.034Z,88.24
2018-02-21T06:07:57.019Z,88.05
2018-02-21T06:08:56.984Z,88.63
2018-02-21T06:09:57.153Z,88.53
2018-02-21T06:10:57.012Z,88.29
2018-02-21T06:11:56.897Z,88.63
2018-02-21T06:12:56.873Z,88.73
2018-02-21T06:13:56.863Z,88.87
2018-02-21T06:14:56.822Z,88.77
2018-02-21T06:15:57.006Z,88.92
2018-02-21T06:16:56.779Z,88.92
2018-02-21T06:17:56.733Z,88.43
2018-02-21T06:18:56.698Z,87.13
2018-02-21T06:19:56.691Z,87.23
2018-02-21T06:20:56.856Z,87.41
2018-02-21T06:21:56.633Z,86.83
2018-02-21T06:22:56.603Z,87.71
2018-02-21T06:23:56.580Z,86.93
2018-02-21T06:24:56.564Z,87.03
2018-02-21T06:25:56.742Z,87.90
2018-02-21T06:26:56.495Z,86.93
2018-02-21T06:27:56.462Z,88.29
2018-02-21T06:28:56.464Z,87.90
2018-02-21T06:29:56.422Z,89.01
2018-02-21T06:30:56.406Z,89.11
2018-02-21T06:31:56.619Z,87.27
2018-02-21T06:32:56.336Z,87.99
2018-02-21T06:33:56.326Z,88.48
2018-02-21T06:34:56.328Z,87.99
2018-02-21T06:35:56.270Z,88.39
2018-02-21T06:36:56.245Z,88.82
2018-02-21T06:37:56.405Z,88.82
2018-02-21T06:38:56.177Z,88.73
2018-02-21T06:39:56.170Z,88.43
2018-02-21T06:40:56.140Z,88.53
2018-02-21T06:41:56.104Z,88.63
2018-02-21T06:42:56.081Z,88.34
2018-02-21T06:43:56.201Z,88.24
2018-02-21T06:44:56.021Z,88.24
2018-02-21T06:45:55.986Z,88.53
2018-02-21T06:46:55.970Z,88.15
2018-02-21T06:47:55.940Z,88.34
2018-02-21T06:48:56.073Z,88.43
2018-02-21T06:49:56.091Z,89.40
2018-02-21T06:50:55.873Z,89.40
2018-02-21T06:51:55.833Z,90.17
2018-02-21T06:52:55.815Z,89.98
2018-02-21T06:53:55.851Z,90.27
2018-02-21T06:54:55.974Z,90.03
2018-02-21T06:55:55.733Z,91.29
2018-02-21T06:56:55.703Z,90.17
2018-02-21T06:57:55.687Z,90.37
2018-02-21T06:58:55.658Z,90.37
2018-02-21T06:59:55.824Z,90.42
2018-02-21T07:00:55.594Z,90.42
2018-02-21T07:01:55.591Z,90.71
2018-02-21T07:02:55.624Z,90.42
2018-02-21T07:03:55.522Z,90.23
2018-02-21T07:04:55.644Z,91.29
2018-02-21T07:05:55.467Z,90.17
2018-02-21T07:06:55.440Z,91.29
2018-02-21T07:07:55.423Z,90.23
2018-02-21T07:08:55.388Z,91.00
2018-02-21T07:09:55.366Z,91.39
2018-02-21T07:10:55.546Z,90.81
2018-02-21T07:11:55.306Z,91.19
2018-02-21T07:12:55.284Z,91.19
2018-02-21T07:13:55.291Z,91.39
2018-02-21T07:14:55.228Z,90.91
2018-02-21T07:15:55.199Z,91.97
2018-02-21T07:16:55.386Z,91.19
2018-02-21T07:17:55.151Z,91.00
2018-02-21T07:18:55.120Z,89.94
2018-02-21T07:19:55.106Z,89.55
2018-02-21T07:20:55.075Z,89.36
2018-02-21T07:21:55.038Z,89.26
2018-02-21T07:22:55.174Z,90.33
2018-02-21T07:23:55.012Z,89.75
2018-02-21T07:24:54.963Z,89.65
2018-02-21T07:25:54.996Z,89.26
2018-02-21T07:26:54.910Z,89.36
2018-02-21T07:27:55.086Z,89.55
2018-02-21T07:28:54.853Z,88.78
2018-02-21T07:29:54.841Z,88.97
2018-02-21T07:30:54.806Z,90.42
2018-02-21T07:31:54.773Z,89.75
2018-02-21T07:32:54.953Z,89.36
2018-02-21T07:33:54.721Z,88.87
2018-02-21T07:34:54.704Z,88.10
2018-02-21T07:35:54.673Z,88.59
2018-02-21T07:36:54.664Z,88.39
2018-02-21T07:37:54.888Z,88.78
2018-02-21T07:38:54.593Z,88.87
2018-02-21T07:39:54.564Z,88.15
2018-02-21T07:40:54.547Z,88.43
2018-02-21T07:41:54.531Z,88.34
2018-02-21T07:42:54.696Z,88.10
2018-02-21T07:43:54.453Z,88.73
2018-02-21T07:44:54.504Z,87.47
2018-02-21T07:45:54.409Z,88.82
2018-02-21T07:46:54.385Z,88.24
2018-02-21T07:47:54.356Z,88.59
2018-02-21T07:48:54.559Z,88.87
2018-02-21T07:49:54.295Z,89.17
2018-02-21T07:50:54.275Z,88.59
2018-02-21T07:51:54.253Z,89.36
2018-02-21T07:52:54.216Z,90.81
2018-02-21T07:53:54.206Z,90.47
2018-02-21T07:54:54.367Z,89.89
2018-02-21T07:55:54.156Z,90.67
2018-02-21T07:56:54.120Z,90.67
2018-02-21T07:57:54.110Z,90.77
2018-02-21T07:58:54.071Z,90.19
2018-02-21T07:59:54.077Z,90.19
2018-02-21T08:00:54.211Z,90.09
2018-02-21T08:01:53.977Z,90.09
2018-02-21T08:02:53.959Z,91.05
2018-02-21T08:03:53.938Z,91.83
2018-02-21T08:04:53.906Z,89.12
2018-02-21T08:05:54.082Z,89.36
2018-02-21T08:06:53.858Z,88.87
2018-02-21T08:07:53.824Z,89.07
2018-02-21T08:08:53.819Z,89.84
2018-02-21T08:09:53.772Z,88.39
2018-02-21T08:10:53.901Z,90.42
2018-02-21T08:11:53.723Z,90.33
2018-02-21T08:12:53.692Z,89.22
2018-02-21T08:13:53.674Z,91.15
2018-02-21T08:14:53.643Z,88.87
2018-02-21T08:15:53.821Z,89.03
2018-02-21T08:16:53.584Z,89.12
2018-02-21T08:17:53.562Z,89.65
2018-02-21T08:18:53.532Z,88.97
2018-02-21T08:19:53.556Z,89.17
2018-02-21T08:20:53.690Z,88.49
2018-02-21T08:21:53.455Z,88.10
2018-02-21T08:22:53.435Z,88.39
2018-02-21T08:23:53.411Z,88.68
2018-02-21T08:24:53.386Z,88.78
2018-02-21T08:25:53.354Z,88.68
2018-02-21T08:26:53.534Z,87.71
2018-02-21T08:27:53.294Z,87.23
2018-02-21T08:28:53.266Z,87.52
2018-02-21T08:29:53.235Z,87.08
2018-02-21T08:30:53.227Z,86.56
2018-02-21T08:31:53.196Z,87.23
2018-02-21T08:32:53.375Z,86.89
2018-02-21T08:33:53.145Z,87.18
2018-02-21T08:34:53.118Z,88.24
2018-02-21T08:35:53.087Z,86.85
2018-02-21T08:36:53.057Z,87.43
2018-02-21T08:37:53.195Z,86.65
2018-02-21T08:38:53.024Z,87.81
2018-02-21T08:39:52.994Z,86.60
2018-02-21T08:40:52.963Z,86.75
2018-02-21T08:41:52.928Z,86.60
2018-02-21T08:42:53.109Z,85.73
2018-02-21T08:43:52.886Z,85.63
2018-02-21T08:44:52.859Z,85.83
2018-02-21T08:45:52.840Z,86.41
2018-02-21T08:46:52.815Z,87.08
2018-02-21T08:47:52.961Z,85.44
2018-02-21T08:48:52.740Z,85.73
2018-02-21T08:49:52.716Z,84.77
2018-02-21T08:50:52.700Z,84.86
2018-02-21T08:51:52.662Z,84.52
2018-02-21T08:52:52.840Z,84.47
2018-02-21T08:53:52.600Z,84.19
2018-02-21T08:54:52.584Z,84.09
2018-02-21T08:55:52.569Z,84.13
2018-02-21T08:56:52.533Z,83.16
2018-02-21T08:57:52.715Z,83.16
2018-02-21T08:58:52.481Z,84.03
2018-02-21T08:59:52.470Z,83.74
2018-02-21T09:00:52.426Z,84.22
2018-02-21T09:01:52.404Z,82.97
2018-02-21T09:02:52.362Z,84.52
2018-02-21T09:03:52.547Z,83.16
2018-02-21T09:04:52.332Z,83.45
2018-02-21T09:05:52.283Z,82.97
2018-02-21T09:06:52.266Z,83.45
2018-02-21T09:07:52.250Z,83.74
2018-02-21T09:08:52.236Z,83.45
2018-02-21T09:09:52.386Z,83.45
2018-02-21T09:10:52.157Z,84.90
2018-02-21T09:11:52.131Z,83.89
2018-02-21T09:12:52.116Z,84.47
2018-02-21T09:13:52.084Z,84.67
2018-02-21T09:14:52.198Z,84.86
2018-02-21T09:15:52.027Z,84.77
2018-02-21T09:16:52.005Z,84.95
2018-02-21T09:17:51.985Z,85.15
2018-02-21T09:18:51.946Z,86.11
2018-02-21T09:19:52.086Z,85.53
2018-02-21T09:20:51.893Z,85.59
2018-02-21T09:21:51.884Z,85.73
2018-02-21T09:22:51.838Z,87.27
2018-02-21T09:23:51.827Z,86.27
2018-02-21T09:24:51.999Z,87.62
2018-02-21T09:25:51.759Z,87.62
2018-02-21T09:26:51.745Z,86.94
2018-02-21T09:27:51.722Z,86.65
2018-02-21T09:28:51.680Z,85.69
2018-02-21T09:29:51.862Z,85.59
2018-02-21T09:30:51.654Z,85.78
2018-02-21T09:31:51.617Z,87.33
2018-02-21T09:32:51.572Z,86.56
2018-02-21T09:33:51.553Z,86.17
2018-02-21T09:34:51.687Z,85.40
2018-02-21T09:35:51.525Z,86.89
2018-02-21T09:36:51.482Z,86.07
2018-02-21T09:37:51.454Z,86.27
2018-02-21T09:38:51.435Z,86.56
2018-02-21T09:39:51.409Z,85.11
2018-02-21T09:40:51.563Z,85.69
2018-02-21T09:41:51.353Z,86.07
2018-02-21T09:42:51.358Z,85.49
2018-02-21T09:43:51.302Z,85.53
2018-02-21T09:44:51.255Z,86.27
2018-02-21T09:45:51.233Z,85.73
2018-02-21T09:46:51.359Z,85.21
2018-02-21T09:47:51.194Z,85.73
2018-02-21T09:48:51.173Z,84.86
2018-02-21T09:49:51.125Z,84.95
2018-02-21T09:50:51.114Z,84.86
2018-02-21T09:51:51.292Z,83.80
2018-02-21T09:52:51.063Z,83.12
2018-02-21T09:53:51.035Z,83.70
2018-02-21T09:54:51.007Z,83.99
2018-02-21T09:55:50.982Z,83.41
2018-02-21T09:56:51.147Z,83.31
2018-02-21T09:57:50.926Z,83.61
2018-02-21T09:58:50.885Z,83.51
2018-02-21T09:59:50.860Z,83.80
2018-02-21T10:00:50.837Z,82.93
2018-02-21T10:01:51.011Z,81.81
2018-02-21T10:02:50.789Z,81.52
2018-02-21T10:03:50.759Z,82.00
2018-02-21T10:04:50.728Z,82.10
2018-02-21T10:05:50.704Z,81.62
2018-02-21T10:06:50.929Z,80.84
2018-02-21T10:07:50.650Z,80.94
2018-02-21T10:08:50.632Z,80.84
2018-02-21T10:09:50.600Z,81.42
2018-02-21T10:10:50.581Z,82.29
2018-02-21T10:11:50.541Z,81.62
2018-02-21T10:12:50.672Z,81.32
2018-02-21T10:13:50.493Z,81.52
2018-02-21T10:14:50.462Z,82.87
2018-02-21T10:15:50.451Z,82.10
2018-02-21T10:16:50.412Z,81.90
2018-02-21T10:17:50.396Z,82.10
2018-02-21T10:18:50.562Z,82.10
2018-02-21T10:19:50.341Z,83.06
2018-02-21T10:20:50.302Z,83.61
2018-02-21T10:21:50.278Z,83.89
2018-02-21T10:22:50.254Z,83.31
2018-02-21T10:23:50.239Z,82.64
2018-02-21T10:24:50.403Z,83.22
2018-02-21T10:25:50.174Z,83.99
2018-02-21T10:26:50.143Z,83.80
2018-02-21T10:27:50.145Z,82.25
2018-02-21T10:28:50.096Z,81.90
2018-02-21T10:29:50.284Z,81.42
2018-02-21T10:30:50.045Z,82.29
2018-02-21T10:31:50.015Z,81.90
2018-02-21T10:32:50.063Z,81.62
2018-02-21T10:33:49.964Z,83.06
2018-02-21T10:34:50.134Z,83.03
2018-02-21T10:35:49.926Z,83.70
2018-02-21T10:36:49.884Z,84.57
2018-02-21T10:37:49.858Z,85.53
2018-02-21T10:38:49.839Z,85.11
2018-02-21T10:39:50.025Z,83.66
2018-02-21T10:40:49.780Z,84.24
2018-02-21T10:41:49.759Z,83.95
2018-02-21T10:42:49.749Z,84.43
2018-02-21T10:43:49.715Z,84.05
2018-02-21T10:44:49.678Z,85.21
2018-02-21T10:45:49.902Z,84.24
2018-02-21T10:46:49.637Z,83.08
2018-02-21T10:47:49.599Z,83.37
2018-02-21T10:48:49.611Z,83.37
2018-02-21T10:49:49.561Z,85.11
2018-02-21T10:50:49.530Z,84.43
2018-02-21T10:51:49.703Z,83.27
2018-02-21T10:52:49.470Z,83.18
2018-02-21T10:53:49.441Z,83.27
2018-02-21T10:54:49.411Z,82.54
2018-02-21T10:55:49.381Z,82.35
2018-02-21T10:56:49.373Z,82.93
2018-02-21T10:57:49.541Z,81.96
2018-02-21T10:58:49.317Z,81.96
2018-02-21T10:59:49.289Z,81.38
2018-02-21T11:00:49.269Z,80.94
2018-02-21T11:01:49.223Z,80.94
2018-02-21T11:02:49.205Z,81.04
2018-02-21T11:03:49.378Z,80.74
2018-02-21T11:04:49.142Z,80.84
2018-02-21T11:05:49.132Z,81.32
2018-02-21T11:06:49.114Z,81.48
2018-02-21T11:07:49.065Z,80.80
2018-02-21T11:08:49.206Z,80.65
2018-02-21T11:09:49.031Z,82.68
2018-02-21T11:10:48.985Z,81.77
2018-02-21T11:11:48.962Z,83.03
2018-02-21T11:12:48.952Z,83.12
2018-02-21T11:13:49.107Z,82.25
2018-02-21T11:14:48.886Z,82.25
2018-02-21T11:15:48.860Z,83.03
2018-02-21T11:16:48.829Z,83.41
2018-02-21T11:17:48.807Z,82.15
2018-02-21T11:18:48.929Z,83.12
2018-02-21T11:19:48.749Z,82.25
2018-02-21T11:20:48.733Z,82.64
2018-02-21T11:21:48.699Z,83.03
2018-02-21T11:22:48.667Z,82.73
2018-02-21T11:23:48.648Z,82.25
2018-02-21T11:24:48.883Z,83.12
2018-02-21T11:25:48.605Z,83.37
2018-02-21T11:26:48.571Z,82.83
2018-02-21T11:27:48.537Z,82.93
2018-02-21T11:28:48.499Z,83.18
2018-02-21T11:29:48.556Z,82.60
2018-02-21T11:30:48.663Z,83.61
2018-02-21T11:31:48.431Z,83.22
2018-02-21T11:32:48.410Z,84.05
2018-02-21T11:33:48.381Z,83.75
2018-02-21T11:34:48.353Z,83.75
2018-02-21T11:35:48.341Z,83.37
2018-02-21T11:36:48.573Z,83.08
2018-02-21T11:37:48.291Z,84.24
2018-02-21T11:38:48.254Z,84.33
2018-02-21T11:39:48.216Z,83.80
2018-02-21T11:40:48.209Z,83.31
2018-02-21T11:41:48.175Z,83.56
2018-02-21T11:42:48.353Z,84.95
2018-02-21T11:43:48.123Z,85.49
2018-02-21T11:44:48.103Z,84.63
2018-02-21T11:45:48.080Z,84.53
2018-02-21T11:46:48.048Z,85.88
2018-02-21T11:47:48.244Z,84.63
2018-02-21T11:48:48.061Z,85.78
2018-02-21T11:49:47.964Z,85.01
2018-02-21T11:50:47.935Z,85.49
2018-02-21T11:51:47.912Z,85.69
2018-02-21T11:52:48.084Z,85.69
2018-02-21T11:53:47.877Z,85.11
2018-02-21T11:54:47.816Z,85.30
2018-02-21T11:55:47.819Z,85.01
2018-02-21T11:56:47.780Z,84.72
2018-02-21T11:57:47.804Z,85.11
2018-02-21T11:58:47.938Z,83.66
2018-02-21T11:59:47.732Z,84.09
2018-02-21T12:00:47.709Z,84.86
2018-02-21T12:01:47.640Z,84.53
2018-02-21T12:02:47.633Z,84.77
2018-02-21T12:03:47.640Z,84.67
2018-02-21T12:04:47.757Z,84.67
2018-02-21T12:05:47.547Z,84.38
2018-02-21T12:06:47.526Z,83.61
2018-02-21T12:07:47.479Z,83.22
2018-02-21T12:08:47.470Z,82.87
2018-02-21T12:09:47.480Z,82.87
2018-02-21T12:10:47.615Z,82.29
2018-02-21T12:11:47.364Z,82.58
2018-02-21T12:12:47.358Z,82.29
2018-02-21T12:13:47.372Z,82.29
2018-02-21T12:14:47.303Z,82.78
2018-02-21T12:15:47.268Z,82.29
2018-02-21T12:16:47.459Z,81.90
2018-02-21T12:17:47.227Z,82.39
2018-02-21T12:18:47.210Z,82.39
2018-02-21T12:19:47.164Z,82.68
2018-02-21T12:20:47.131Z,82.00
2018-02-21T12:21:47.113Z,82.81
2018-02-21T12:22:47.235Z,82.10
2018-02-21T12:23:47.109Z,82.68
2018-02-21T12:24:47.030Z,81.71
2018-02-21T12:25:47.003Z,82.04
2018-02-21T12:26:46.992Z,81.37
2018-02-21T12:27:47.154Z,81.95
2018-02-21T12:28:46.926Z,82.62
2018-02-21T12:29:46.894Z,81.85
2018-02-21T12:30:46.897Z,81.46
2018-02-21T12:31:46.896Z,80.88
2018-02-21T12:32:46.840Z,80.69
2018-02-21T12:33:46.995Z,80.63
2018-02-21T12:34:46.765Z,80.92
2018-02-21T12:35:46.746Z,80.63
2018-02-21T12:36:46.715Z,80.92
2018-02-21T12:37:46.768Z,79.76
2018-02-21T12:38:46.677Z,80.15
2018-02-21T12:39:46.887Z,79.37
2018-02-21T12:40:46.628Z,80.47
2018-02-21T12:41:46.622Z,80.34
2018-02-21T12:42:46.609Z,80.38
2018-02-21T12:43:46.538Z,80.87
2018-02-21T12:44:46.757Z,80.77
2018-02-21T12:45:46.500Z,79.50
2018-02-21T12:46:46.669Z,79.50
2018-02-21T12:47:46.429Z,79.12
2018-02-21T12:48:46.417Z,79.02
2018-02-21T12:49:46.382Z,79.12
2018-02-21T12:50:46.551Z,79.32
2018-02-21T12:51:46.332Z,79.50
2018-02-21T12:52:46.369Z,78.77
2018-02-21T12:53:46.289Z,79.16